createdAt,value
2018-12-30T00:00:27.941Z,98317.20
2018-12-30T00:02:56.226Z,98318.78
2018-12-30T00:05:29.141Z,98336.31
2018-12-30T00:08:00.730Z,98330.30
2018-12-30T00:10:29.090Z,98320.21
2018-12-30T00:12:57.372Z,98318.77
2018-12-30T00:15:28.999Z,98324.63
2018-12-30T00:17:57.313Z,98325.88
2018-12-30T00:20:25.676Z,98341.80
2018-12-30T00:22:54.003Z,98333.66
2018-12-30T00:25:22.395Z,98332.77
2018-12-30T00:27:50.993Z,98330.30
2018-12-30T00:30:19.269Z,98326.41
2018-12-30T00:32:47.635Z,98325.69
2018-12-30T00:35:16.026Z,98329.05
2018-12-30T00:37:44.361Z,98314.19
2018-12-30T00:40:12.734Z,98312.58
2018-12-30T00:42:41.191Z,98315.44
2018-12-30T00:45:09.568Z,98303.04
2018-12-30T00:47:37.885Z,98314.89
2018-12-30T00:50:06.260Z,98306.04
2018-12-30T00:52:34.541Z,98311.00
2018-12-30T00:55:02.833Z,98295.94
2018-12-30T00:57:31.084Z,98304.45
2018-12-30T00:59:59.435Z,98294.72
2018-12-30T01:02:27.833Z,98304.45
2018-12-30T01:04:56.104Z,98289.03
2018-12-30T01:07:24.449Z,98281.77
2018-12-30T01:09:52.847Z,98271.86
2018-12-30T01:12:21.143Z,98275.78
2018-12-30T01:14:49.503Z,98291.00
2018-12-30T01:17:17.776Z,98301.78
2018-12-30T01:19:46.054Z,98302.16
2018-12-30T01:22:14.321Z,98299.13
2018-12-30T01:24:43.102Z,98310.98
2018-12-30T01:27:11.411Z,98307.98
2018-12-30T01:29:41.325Z,98310.30
2018-12-30T01:32:12.490Z,98308.17
2018-12-30T01:34:40.860Z,98313.12
2018-12-30T01:37:09.107Z,98312.94
2018-12-30T01:39:37.466Z,98314.18
2018-12-30T01:42:05.755Z,98313.98
2018-12-30T01:44:34.041Z,98310.78
2018-12-30T01:47:02.365Z,98313.27
2018-12-30T01:49:30.642Z,98317.52
2018-12-30T01:51:59.139Z,98321.95
2018-12-30T01:54:27.481Z,98313.28
2018-12-30T01:56:58.695Z,98316.80
2018-12-30T01:59:27.050Z,98310.95
2018-12-30T02:01:55.398Z,98322.98
2018-12-30T02:04:24.046Z,98331.84
2018-12-30T02:06:52.476Z,98314.68
2018-12-30T02:09:20.762Z,98308.45
2018-12-30T02:11:49.063Z,98309.69
2018-12-30T02:14:17.315Z,98302.77
2018-12-30T02:16:45.589Z,98314.11
2018-12-30T02:19:13.817Z,98333.06
2018-12-30T02:21:42.171Z,98330.03
2018-12-30T02:24:10.452Z,98324.55
2018-12-30T02:26:38.752Z,98326.31
2018-12-30T02:29:07.007Z,98328.24
2018-12-30T02:31:35.557Z,98333.38
2018-12-30T02:34:03.964Z,98333.38
2018-12-30T02:36:32.227Z,98333.89
2018-12-30T02:39:00.468Z,98330.90
2018-12-30T02:41:28.779Z,98331.06
2018-12-30T02:43:57.442Z,98325.55
2018-12-30T02:46:25.650Z,98330.17
2018-12-30T02:48:53.979Z,98326.97
2018-12-30T02:51:24.879Z,98332.11
2018-12-30T02:53:53.240Z,98325.17
2018-12-30T02:56:21.878Z,98321.11
2018-12-30T02:58:50.211Z,98334.55
2018-12-30T03:01:18.488Z,98326.94
2018-12-30T03:03:46.783Z,98333.69
2018-12-30T03:06:15.038Z,98339.89
2018-12-30T03:08:43.628Z,98330.86
2018-12-30T03:11:11.876Z,98334.03
2018-12-30T03:13:42.961Z,98337.41
2018-12-30T03:16:11.244Z,98339.34
2018-12-30T03:18:39.515Z,98337.58
2018-12-30T03:21:07.833Z,98337.76
2018-12-30T03:23:36.113Z,98339.89
2018-12-30T03:26:04.411Z,98337.76
2018-12-30T03:28:32.674Z,98322.69
2018-12-30T03:31:00.900Z,98325.52
2018-12-30T03:33:29.142Z,98313.62
2018-12-30T03:35:57.445Z,98322.48
2018-12-30T03:38:25.716Z,98317.00
2018-12-30T03:40:53.989Z,98319.66
2018-12-30T03:43:22.281Z,98312.89
2018-12-30T03:45:50.533Z,98320.52
2018-12-30T03:48:18.798Z,98313.23
2018-12-30T03:50:47.086Z,98326.20
2018-12-30T03:53:18.399Z,98312.16
2018-12-30T03:55:47.819Z,98314.81
2018-12-30T03:58:16.180Z,98310.41
2018-12-30T04:00:46.917Z,98312.51
2018-12-30T04:03:15.206Z,98306.30
2018-12-30T04:05:43.524Z,98316.06
2018-12-30T04:08:11.817Z,98317.13
2018-12-30T04:10:40.120Z,98313.05
2018-12-30T04:13:08.434Z,98312.33
2018-12-30T04:15:36.751Z,98311.09
2018-12-30T04:18:05.112Z,98314.26
2018-12-30T04:20:33.334Z,98315.50
2018-12-30T04:23:01.652Z,98311.94
2018-12-30T04:25:29.888Z,98315.84
2018-12-30T04:27:58.154Z,98313.87
2018-12-30T04:30:26.515Z,98320.08
2018-12-30T04:32:54.764Z,98320.62
2018-12-30T04:35:24.554Z,98321.48
2018-12-30T04:37:52.800Z,98320.80
2018-12-30T04:40:21.075Z,98323.11
2018-12-30T04:42:49.425Z,98319.00
2018-12-30T04:45:17.700Z,98322.20
2018-12-30T04:47:45.937Z,98316.34
2018-12-30T04:50:14.185Z,98322.17
2018-12-30T04:52:42.447Z,98319.50
2018-12-30T04:55:10.745Z,98326.23
2018-12-30T04:57:38.993Z,98329.78
2018-12-30T05:00:07.266Z,98323.02
2018-12-30T05:02:35.532Z,98322.67
2018-12-30T05:05:05.553Z,98318.42
2018-12-30T05:07:33.789Z,98320.19
2018-12-30T05:10:02.167Z,98326.56
2018-12-30T05:12:30.459Z,98327.25
2018-12-30T05:14:58.767Z,98332.22
2018-12-30T05:17:27.014Z,98334.34
2018-12-30T05:19:55.336Z,98330.41
2018-12-30T05:22:23.679Z,98332.16
2018-12-30T05:24:51.918Z,98329.31
2018-12-30T05:27:20.279Z,98330.55
2018-12-30T05:29:48.519Z,98339.93
2018-12-30T05:32:16.782Z,98347.56
2018-12-30T05:34:45.078Z,98347.00
2018-12-30T05:37:13.355Z,98342.37
2018-12-30T05:39:41.617Z,98343.61
2018-12-30T05:42:09.996Z,98342.70
2018-12-30T05:44:38.304Z,98341.63
2018-12-30T05:47:08.340Z,98351.56
2018-12-30T05:49:36.672Z,98352.97
2018-12-30T05:52:04.986Z,98356.86
2018-12-30T05:54:33.309Z,98360.58
2018-12-30T05:57:01.591Z,98360.02
2018-12-30T05:59:29.832Z,98369.11
2018-12-30T06:01:58.101Z,98368.71
2018-12-30T06:04:26.387Z,98370.29
2018-12-30T06:06:54.759Z,98375.25
2018-12-30T06:09:25.002Z,98382.15
2018-12-30T06:11:53.275Z,98382.83
2018-12-30T06:14:21.515Z,98382.66
2018-12-30T06:16:49.920Z,98383.91
2018-12-30T06:19:18.200Z,98384.95
2018-12-30T06:21:46.491Z,98390.61
2018-12-30T06:24:14.743Z,98215.72
2018-12-30T06:26:42.993Z,98402.13
2018-12-30T06:29:11.270Z,98404.56
2018-12-30T06:31:39.620Z,98408.46
2018-12-30T06:34:07.910Z,98406.70
2018-12-30T06:36:36.198Z,98408.09
2018-12-30T06:39:05.800Z,98412.86
2018-12-30T06:41:34.048Z,98427.27
2018-12-30T06:44:02.353Z,98426.70
2018-12-30T06:46:30.633Z,98433.98
2018-12-30T06:48:58.901Z,98435.80
2018-12-30T06:51:27.150Z,98437.38
2018-12-30T06:53:55.422Z,98436.30
2018-12-30T06:56:23.700Z,98429.00
2018-12-30T06:58:51.969Z,98443.36
2018-12-30T07:01:20.233Z,98454.33
2018-12-30T07:03:48.520Z,98447.41
2018-12-30T07:06:16.773Z,98447.41
2018-12-30T07:08:45.042Z,98452.17
2018-12-30T07:11:13.299Z,98461.43
2018-12-30T07:13:41.542Z,98461.03
2018-12-30T07:16:09.895Z,98460.52
2018-12-30T07:18:38.196Z,98468.16
2018-12-30T07:21:06.484Z,98470.97
2018-12-30T07:23:34.811Z,98479.69
2018-12-30T07:26:22.485Z,98486.59
2018-12-30T07:28:50.736Z,98480.72
2018-12-30T07:31:18.984Z,98487.09
2018-12-30T07:34:06.734Z,98493.30
2018-12-30T07:36:35.141Z,98492.05
2018-12-30T07:39:04.640Z,98495.41
2018-12-30T07:41:32.939Z,98499.35
2018-12-30T07:44:01.188Z,98498.95
2018-12-30T07:46:29.596Z,98506.24
2018-12-30T07:48:57.867Z,98515.45
2018-12-30T07:51:26.139Z,98517.56
2018-12-30T07:53:54.434Z,98520.03
2018-12-30T07:56:22.672Z,98527.48
2018-12-30T07:58:51.019Z,98532.42
2018-12-30T08:01:19.400Z,98534.73
2018-12-30T08:03:47.690Z,98543.77
2018-12-30T08:06:15.991Z,98539.86
2018-12-30T08:08:46.710Z,98556.56
2018-12-30T08:11:14.994Z,98557.80
2018-12-30T08:13:43.289Z,98560.81
2018-12-30T08:16:11.640Z,98564.92
2018-12-30T08:18:39.885Z,98567.75
2018-12-30T08:21:08.264Z,98584.10
2018-12-30T08:23:36.457Z,98574.47
2018-12-30T08:26:04.710Z,98571.77
2018-12-30T08:28:32.978Z,98581.72
2018-12-30T08:31:01.226Z,98590.75
2018-12-30T08:33:29.500Z,98593.76
2018-12-30T08:35:57.744Z,98597.31
2018-12-30T08:38:26.000Z,98599.05
2018-12-30T08:40:54.252Z,98606.84
2018-12-30T08:43:22.492Z,98613.91
2018-12-30T08:45:50.770Z,98617.97
2018-12-30T08:48:19.019Z,98621.64
2018-12-30T08:50:47.280Z,98629.37
2018-12-30T08:53:15.626Z,98633.08
2018-12-30T08:55:43.988Z,98638.73
2018-12-30T08:58:12.340Z,98642.80
2018-12-30T09:00:40.594Z,98046.40
2018-12-30T09:03:08.974Z,98648.97
2018-12-30T09:05:37.265Z,98651.25
2018-12-30T09:08:05.579Z,98658.55
2018-12-30T09:10:33.816Z,98660.16
2018-12-30T09:13:02.075Z,98662.29
2018-12-30T09:15:30.543Z,97968.44
2018-12-30T09:17:58.813Z,98673.67
2018-12-30T09:20:27.131Z,98683.28
2018-12-30T09:22:55.499Z,98694.45
2018-12-30T09:25:23.811Z,98690.84
2018-12-30T09:27:52.062Z,98707.39
2018-12-30T09:30:20.418Z,98712.55
2018-12-30T09:32:48.719Z,98722.52
2018-12-30T09:35:16.982Z,98726.45
2018-12-30T09:37:45.268Z,98733.73
2018-12-30T09:40:13.533Z,98737.31
2018-12-30T09:42:41.934Z,98730.69
2018-12-30T09:45:10.422Z,98736.73
2018-12-30T09:47:38.802Z,98743.66
2018-12-30T09:50:08.907Z,98746.86
2018-12-30T09:52:37.266Z,98748.11
2018-12-30T09:55:07.201Z,98757.17
2018-12-30T09:57:35.644Z,98759.09
2018-12-30T10:00:05.739Z,98764.09
2018-12-30T10:02:35.788Z,98762.11
2018-12-30T10:05:04.567Z,98766.00
2018-12-30T10:07:34.657Z,98763.66
2018-12-30T10:10:03.170Z,98757.61
2018-12-30T10:12:31.586Z,98762.49
2018-12-30T10:15:09.010Z,98767.09
2018-12-30T10:17:30.344Z,98768.49
2018-12-30T10:19:58.721Z,98778.28
2018-12-30T10:22:27.325Z,98771.34
2018-12-30T10:24:55.796Z,98773.83
2018-12-30T10:27:24.131Z,98782.89
2018-12-30T10:29:52.513Z,98780.38
2018-12-30T10:32:20.942Z,98783.96
2018-12-30T10:34:51.854Z,97483.77
2018-12-30T10:37:20.276Z,98785.52
2018-12-30T10:39:48.823Z,98787.23
2018-12-30T10:42:17.290Z,98795.21
2018-12-30T10:44:45.757Z,98795.91
2018-12-30T10:47:14.212Z,98794.64
2018-12-30T10:49:42.671Z,98803.36
2018-12-30T10:52:12.758Z,98797.98
2018-12-30T10:54:41.208Z,98804.77
2018-12-30T10:57:09.648Z,98806.69
2018-12-30T10:59:37.931Z,98806.10
2018-12-30T11:02:06.269Z,98806.59
2018-12-30T11:04:34.538Z,98798.84
2018-12-30T11:07:02.792Z,98804.41
2018-12-30T11:09:31.227Z,98805.80
2018-12-30T11:11:59.535Z,98805.41
2018-12-30T11:14:27.930Z,98812.72
2018-12-30T11:16:56.323Z,98811.13
2018-12-30T11:19:24.624Z,98819.64
2018-12-30T11:21:52.977Z,98819.48
2018-12-30T11:24:21.335Z,98819.70
2018-12-30T11:26:49.658Z,98814.41
2018-12-30T11:29:18.053Z,98804.28
2018-12-30T11:31:46.409Z,98798.03
2018-12-30T11:34:14.903Z,98814.10
2018-12-30T11:36:43.417Z,98811.34
2018-12-30T11:39:11.735Z,98810.28
2018-12-30T11:41:40.179Z,98810.28
2018-12-30T11:44:08.595Z,98804.11
2018-12-30T11:46:36.874Z,98806.39
2018-12-30T11:49:05.292Z,98798.25
2018-12-30T11:51:33.614Z,97460.55
2018-12-30T11:54:01.961Z,98795.40
2018-12-30T11:56:30.339Z,98793.06
2018-12-30T11:58:58.646Z,98800.64
2018-12-30T12:01:27.148Z,98805.75
2018-12-30T12:03:55.524Z,98810.31
2018-12-30T12:06:23.859Z,98809.22
2018-12-30T12:08:52.228Z,98814.73
2018-12-30T12:11:20.695Z,98815.05
2018-12-30T12:13:49.039Z,98819.73
2018-12-30T12:16:17.392Z,98814.22
2018-12-30T12:18:45.785Z,98812.48
2018-12-30T12:21:14.244Z,98825.16
2018-12-30T12:23:44.853Z,98823.25
2018-12-30T12:26:13.130Z,98820.43
2018-12-30T12:28:41.579Z,98818.67
2018-12-30T12:31:09.842Z,98822.19
2018-12-30T12:33:38.220Z,97527.92
2018-12-30T12:36:06.583Z,98831.84
2018-12-30T12:38:34.918Z,98824.58
2018-12-30T12:41:03.332Z,98826.86
2018-12-30T12:43:33.955Z,98824.36
2018-12-30T12:46:02.411Z,98821.38
2018-12-30T12:48:32.361Z,98821.19
2018-12-30T12:51:00.807Z,98821.02
2018-12-30T12:53:29.094Z,98824.58
2018-12-30T12:55:57.495Z,98832.23
2018-12-30T12:58:25.839Z,98830.60
2018-12-30T13:00:56.269Z,98829.73
2018-12-30T13:03:24.739Z,98830.58
2018-12-30T13:05:53.224Z,98834.67
2018-12-30T13:08:21.574Z,98832.73
2018-12-30T13:10:49.982Z,98839.50
2018-12-30T13:13:18.462Z,98837.88
2018-12-30T13:15:46.790Z,98843.74
2018-12-30T13:18:15.203Z,98854.28
2018-12-30T13:20:54.829Z,98853.78
2018-12-30T13:23:23.348Z,98458.86
2018-12-30T13:25:51.641Z,98850.89
2018-12-30T13:28:20.097Z,98856.80
2018-12-30T13:30:48.596Z,98853.97
2018-12-30T13:33:17.121Z,98852.72
2018-12-30T13:35:47.359Z,98865.37
2018-12-30T13:38:15.687Z,98872.52
2018-12-30T13:40:44.451Z,98867.88
2018-12-30T13:43:12.818Z,98864.47
2018-12-30T13:45:41.166Z,98867.21
2018-12-30T13:48:12.279Z,98871.69
2018-12-30T13:50:40.729Z,98883.63
2018-12-30T13:53:09.153Z,98882.20
2018-12-30T13:55:37.538Z,98851.86
2018-12-30T13:58:06.933Z,98893.77
2018-12-30T14:00:37.419Z,98897.73
2018-12-30T14:03:05.816Z,98905.76
2018-12-30T14:05:34.273Z,98912.55
2018-12-30T14:08:02.748Z,98913.98
2018-12-30T14:10:32.017Z,98910.92
2018-12-30T14:13:00.429Z,98913.30
2018-12-30T14:15:28.764Z,98912.91
2018-12-30T14:17:58.745Z,98909.34
2018-12-30T14:20:27.087Z,98904.02
2018-12-30T14:22:58.287Z,98893.02
2018-12-30T14:25:26.779Z,98894.09
2018-12-30T14:27:55.120Z,98896.95
2018-12-30T14:30:23.473Z,98900.33
2018-12-30T14:32:51.795Z,98899.45
2018-12-30T14:35:20.228Z,98899.09
2018-12-30T14:37:48.605Z,98896.77
2018-12-30T14:40:16.919Z,98897.84
2018-12-30T14:42:45.188Z,98895.36
2018-12-30T14:45:13.647Z,98900.18
2018-12-30T14:47:41.954Z,98903.08
2018-12-30T14:50:11.180Z,98904.16
2018-12-30T14:52:39.549Z,98912.56
2018-12-30T14:55:07.907Z,98904.18
2018-12-30T14:57:36.296Z,98913.48
2018-12-30T15:00:06.221Z,98908.89
2018-12-30T15:02:34.505Z,98763.81
2018-12-30T15:05:02.803Z,98911.55
2018-12-30T15:07:31.220Z,98913.53
2018-12-30T15:09:59.494Z,98910.66
2018-12-30T15:12:27.785Z,98909.07
2018-12-30T15:14:56.108Z,98910.70
2018-12-30T15:17:24.384Z,98913.20
2018-12-30T15:19:52.735Z,98913.38
2018-12-30T15:22:21.024Z,98909.29
2018-12-30T15:24:49.421Z,98909.80
2018-12-30T15:27:17.690Z,98906.45
2018-12-30T15:29:46.071Z,98904.70
2018-12-30T15:32:14.458Z,98913.09
2018-12-30T15:34:42.723Z,98909.00
2018-12-30T15:37:11.088Z,98902.38
2018-12-30T15:39:39.363Z,98901.19
2018-12-30T15:42:07.668Z,98906.52
2018-12-30T15:44:35.967Z,98906.70
2018-12-30T15:47:04.262Z,98899.91
2018-12-30T15:49:32.549Z,98901.88
2018-12-30T15:52:00.836Z,98905.97
2018-12-30T15:54:29.216Z,98912.23
2018-12-30T15:56:57.553Z,98909.92
2018-12-30T15:59:25.872Z,98924.16
2018-12-30T16:01:54.242Z,98924.16
2018-12-30T16:04:22.604Z,98919.00
2018-12-30T16:06:50.895Z,98932.53
2018-12-30T16:09:19.364Z,98923.98
2018-12-30T16:11:47.719Z,98929.88
2018-12-30T16:14:15.971Z,98924.70
2018-12-30T16:16:44.318Z,98921.84
2018-12-30T16:19:12.589Z,98924.33
2018-12-30T16:21:40.985Z,98923.09
2018-12-30T16:24:09.271Z,98927.00
2018-12-30T16:26:37.567Z,98925.93
2018-12-30T16:29:05.936Z,98944.46
2018-12-30T16:31:34.314Z,98929.67
2018-12-30T16:34:02.631Z,98933.97
2018-12-30T16:36:32.641Z,98936.12
2018-12-30T16:39:00.971Z,98937.32
2018-12-30T16:41:29.267Z,98932.72
2018-12-30T16:43:57.619Z,98937.32
2018-12-30T16:46:26.001Z,98936.80
2018-12-30T16:48:54.359Z,98940.72
2018-12-30T16:51:22.768Z,98934.31
2018-12-30T16:53:51.209Z,98930.95
2018-12-30T16:56:19.584Z,98930.78
2018-12-30T16:58:47.971Z,98927.57
2018-12-30T17:01:16.263Z,98936.29
2018-12-30T17:03:44.539Z,98935.77
2018-12-30T17:06:14.455Z,98933.80
2018-12-30T17:08:42.870Z,98925.25
2018-12-30T17:11:11.179Z,98914.75
2018-12-30T17:13:39.448Z,98918.88
2018-12-30T17:16:07.696Z,98916.73
2018-12-30T17:18:36.005Z,98906.59
2018-12-30T17:21:04.384Z,98916.56
2018-12-30T17:23:32.631Z,98929.54
2018-12-30T17:26:01.012Z,98930.96
2018-12-30T17:28:29.419Z,98915.83
2018-12-30T17:30:57.779Z,98927.78
2018-12-30T17:33:26.077Z,98930.27
2018-12-30T17:35:54.356Z,98935.43
2018-12-30T17:38:23.619Z,98947.17
2018-12-30T17:40:52.107Z,98938.66
2018-12-30T17:43:20.420Z,98943.64
2018-12-30T17:45:48.760Z,98940.77
2018-12-30T17:48:17.123Z,98943.81
2018-12-30T17:50:45.474Z,98947.38
2018-12-30T17:53:13.794Z,98943.64
2018-12-30T17:55:42.075Z,98945.97
2018-12-30T17:58:10.522Z,98941.16
2018-12-30T18:00:38.796Z,98936.55
2018-12-30T18:03:07.087Z,98944.72
2018-12-30T18:05:35.389Z,98946.31
2018-12-30T18:08:03.794Z,98955.94
2018-12-30T18:10:32.070Z,98954.69
2018-12-30T18:13:00.473Z,98954.69
2018-12-30T18:15:28.952Z,98964.14
2018-12-30T18:17:57.213Z,98962.34
2018-12-30T18:20:25.574Z,98946.86
2018-12-30T18:22:53.983Z,98950.05
2018-12-30T18:25:22.320Z,98949.53
2018-12-30T18:27:50.629Z,98947.21
2018-12-30T18:30:18.940Z,98939.00
2018-12-30T18:32:47.225Z,98950.22
2018-12-30T18:35:15.543Z,98953.44
2018-12-30T18:37:43.878Z,98955.21
2018-12-30T18:40:12.264Z,98955.03
2018-12-30T18:42:40.665Z,98964.45
2018-12-30T18:45:08.945Z,98971.41
2018-12-30T18:47:37.266Z,98968.75
2018-12-30T18:50:07.863Z,98972.31
2018-12-30T18:52:36.390Z,98970.69
2018-12-30T18:55:05.121Z,98976.02
2018-12-30T18:57:33.486Z,98969.27
2018-12-30T19:00:01.935Z,98912.05
2018-12-30T19:02:30.261Z,98969.30
2018-12-30T19:04:58.514Z,98968.23
2018-12-30T19:07:26.882Z,98979.63
2018-12-30T19:09:55.148Z,98967.71
2018-12-30T19:12:23.580Z,98962.38
2018-12-30T19:14:52.052Z,98958.30
2018-12-30T19:17:20.305Z,98966.12
2018-12-30T19:19:48.680Z,98963.28
2018-12-30T19:22:16.961Z,98950.30
2018-12-30T19:24:45.262Z,98959.37
2018-12-30T19:27:13.719Z,98949.05
2018-12-30T19:29:42.215Z,98953.86
2018-12-30T19:32:10.760Z,98946.56
2018-12-30T19:34:40.730Z,98950.47
2018-12-30T19:37:10.724Z,98951.02
2018-12-30T19:39:51.244Z,98950.13
2018-12-30T19:42:19.768Z,98952.09
2018-12-30T19:44:49.050Z,98950.15
2018-12-30T19:47:17.933Z,98949.08
2018-12-30T19:49:46.316Z,98944.27
2018-12-30T19:52:14.851Z,98935.92
2018-12-30T19:54:43.260Z,98931.84
2018-12-30T19:57:13.290Z,98942.33
2018-12-30T19:59:41.664Z,98933.61
2018-12-30T20:02:09.997Z,98305.30
2018-12-30T20:04:40.720Z,98931.84
2018-12-30T20:07:11.077Z,98922.77
2018-12-30T20:09:41.669Z,98930.42
2018-12-30T20:12:11.634Z,98924.53
2018-12-30T20:14:43.369Z,98919.03
2018-12-30T20:17:11.768Z,98926.13
2018-12-30T20:19:42.960Z,98925.09
2018-12-30T20:22:11.517Z,98919.20
2018-12-30T20:24:39.837Z,98922.42
2018-12-30T20:27:08.363Z,98923.67
2018-12-30T20:29:36.643Z,98924.73
2018-12-30T20:32:04.928Z,98926.33
2018-12-30T20:34:33.206Z,98923.66
2018-12-30T20:37:01.447Z,98920.48
2018-12-30T20:39:30.598Z,98917.44
2018-12-30T20:41:58.922Z,98913.53
2018-12-30T20:44:27.160Z,98915.47
2018-12-30T20:46:55.511Z,98917.44
2018-12-30T20:49:23.747Z,98903.73
2018-12-30T20:51:52.000Z,98911.03
2018-12-30T20:54:20.297Z,98908.72
2018-12-30T20:56:50.216Z,98902.87
2018-12-30T20:59:20.622Z,98906.23
2018-12-30T21:01:51.087Z,98898.06
2018-12-30T21:04:31.764Z,98900.17
2018-12-30T21:07:03.125Z,98901.07
2018-12-30T21:09:31.581Z,98899.48
2018-12-30T21:12:01.732Z,98893.59
2018-12-30T21:14:30.069Z,98896.81
2018-12-30T21:16:58.435Z,98898.58
2018-12-30T21:19:29.448Z,98891.83
2018-12-30T21:21:57.868Z,98885.95
2018-12-30T21:24:27.289Z,98892.73
2018-12-30T21:26:55.531Z,98903.05
2018-12-30T21:29:23.958Z,98903.73
2018-12-30T21:31:53.764Z,98899.82
2018-12-30T21:34:22.018Z,98891.48
2018-12-30T21:36:50.367Z,98886.13
2018-12-30T21:39:18.608Z,98882.21
2018-12-30T21:41:46.901Z,98887.57
2018-12-30T21:44:15.149Z,98880.83
2018-12-30T21:46:43.431Z,98885.80
2018-12-30T21:49:11.740Z,98884.73
2018-12-30T21:51:40.071Z,98883.48
2018-12-30T21:54:08.414Z,98893.25
2018-12-30T21:56:36.645Z,98891.83
2018-12-30T21:59:04.933Z,98888.09
2018-12-30T22:01:34.600Z,98888.47
2018-12-30T22:04:02.953Z,98880.66
2018-12-30T22:06:31.352Z,98885.63
2018-12-30T22:08:59.724Z,98881.34
2018-12-30T22:11:28.386Z,98885.63
2018-12-30T22:13:56.765Z,98890.78
2018-12-30T22:16:25.004Z,98888.13
2018-12-30T22:18:53.346Z,98892.38
2018-12-30T22:21:21.693Z,98901.27
2018-12-30T22:23:49.989Z,98898.26
2018-12-30T22:26:18.359Z,98901.64
2018-12-30T22:28:46.644Z,98900.22
2018-12-30T22:31:15.101Z,98901.98
2018-12-30T22:33:43.401Z,98905.89
2018-12-30T22:36:11.714Z,98901.65
2018-12-30T22:38:40.075Z,98898.78
2018-12-30T22:41:08.495Z,98897.73
2018-12-30T22:43:36.763Z,98904.31
2018-12-30T22:46:05.038Z,98906.08
2018-12-30T22:48:33.321Z,98916.77
2018-12-30T22:51:01.675Z,98917.83
2018-12-30T22:53:30.085Z,98920.33
2018-12-30T22:55:58.322Z,98913.38
2018-12-30T22:58:26.634Z,98903.75
2018-12-30T23:01:02.167Z,98892.20
2018-12-30T23:03:30.474Z,98895.04
2018-12-30T23:05:58.806Z,98891.48
2018-12-30T23:08:27.118Z,98890.78
2018-12-30T23:10:55.384Z,98893.63
2018-12-30T23:13:23.674Z,98890.78
2018-12-30T23:15:51.929Z,98892.73
2018-12-30T23:18:20.226Z,98892.92
2018-12-30T23:20:48.490Z,98888.13
2018-12-30T23:23:16.721Z,98883.48
2018-12-30T23:25:45.934Z,98887.56
2018-12-30T23:28:14.282Z,98882.97
2018-12-30T23:30:42.536Z,98887.05
2018-12-30T23:33:10.805Z,98886.35
2018-12-30T23:35:39.066Z,98880.30
2018-12-30T23:38:07.425Z,98877.98
2018-12-30T23:40:35.697Z,98882.79
2018-12-30T23:43:04.046Z,98881.55
2018-12-30T23:45:32.292Z,98883.48
2018-12-30T23:48:06.821Z,98885.63
2018-12-30T23:50:35.255Z,98884.94
2018-12-30T23:53:03.514Z,97977.20
2018-12-30T23:55:31.787Z,98880.13
2018-12-30T23:58:00.096Z,98879.60
